createdAt,value
2022-12-03T00:00:45.369Z,17.00
2022-12-03T00:03:15.382Z,15.25
2022-12-03T00:05:49.240Z,18.17
2022-12-03T00:08:19.447Z,14.68
2022-12-03T00:10:49.364Z,15.88
2022-12-03T00:13:19.189Z,13.52
2022-12-03T00:15:51.763Z,15.75
2022-12-03T00:18:21.710Z,18.25
2022-12-03T00:20:51.645Z,13.40
2022-12-03T00:23:21.517Z,16.00
2022-12-03T00:25:51.417Z,16.13
2022-12-03T00:28:21.237Z,16.08
2022-12-03T00:30:54.351Z,14.70
2022-12-03T00:33:24.846Z,17.58
2022-12-03T00:35:55.046Z,18.40
2022-12-03T00:38:24.928Z,18.05
2022-12-03T00:40:54.767Z,17.38
2022-12-03T00:43:24.682Z,19.45
2022-12-03T00:45:57.715Z,15.48
2022-12-03T00:48:27.626Z,18.80
2022-12-03T00:50:57.589Z,17.00
2022-12-03T00:53:27.527Z,16.90
2022-12-03T00:55:57.478Z,18.08
2022-12-03T00:58:27.320Z,19.65
2022-12-03T01:00:59.795Z,16.30
2022-12-03T01:03:29.918Z,18.92
2022-12-03T01:05:59.850Z,12.63
2022-12-03T01:08:29.762Z,17.10
2022-12-03T01:10:59.662Z,18.80
2022-12-03T01:13:29.661Z,15.55
2022-12-03T01:16:02.171Z,15.55
2022-12-03T01:18:32.172Z,17.42
2022-12-03T01:21:02.007Z,18.30
2022-12-03T01:23:31.919Z,18.17
2022-12-03T01:26:01.803Z,15.40
2022-12-03T01:28:31.766Z,18.02
2022-12-03T01:31:16.813Z,16.25
2022-12-03T01:33:46.881Z,15.15
2022-12-03T01:36:16.721Z,18.10
2022-12-03T01:38:48.868Z,16.05
2022-12-03T01:41:19.740Z,18.63
2022-12-03T01:43:49.964Z,16.02
2022-12-03T01:46:24.801Z,16.70
2022-12-03T01:48:56.336Z,18.85
2022-12-03T01:51:26.296Z,17.40
2022-12-03T01:53:56.333Z,15.02
2022-12-03T01:56:26.268Z,15.70
2022-12-03T01:58:56.184Z,17.30
2022-12-03T02:01:28.738Z,15.93
2022-12-03T02:03:58.946Z,14.60
2022-12-03T02:06:31.401Z,14.15
2022-12-03T02:09:01.476Z,18.13
2022-12-03T02:11:33.725Z,18.00
2022-12-03T02:14:06.409Z,19.30
2022-12-03T02:16:40.373Z,16.95
2022-12-03T02:19:16.067Z,17.60
2022-12-03T02:21:56.595Z,14.93
2022-12-03T02:24:34.638Z,18.02
2022-12-03T02:27:07.240Z,17.10
2022-12-03T02:29:37.259Z,14.50
2022-12-03T02:32:07.660Z,14.95
2022-12-03T02:34:42.207Z,16.48
2022-12-03T02:37:14.997Z,13.85
2022-12-03T02:39:48.970Z,14.90
2022-12-03T02:42:34.890Z,18.88
2022-12-03T02:45:07.500Z,15.93
2022-12-03T02:47:38.812Z,16.13
2022-12-03T02:50:09.991Z,17.88
2022-12-03T02:52:40.651Z,17.58
2022-12-03T02:55:11.258Z,15.85
2022-12-03T02:57:44.060Z,17.88
2022-12-03T03:00:15.605Z,16.27
2022-12-03T03:02:45.650Z,14.80
2022-12-03T03:05:16.173Z,16.77
2022-12-03T03:07:46.182Z,15.13
2022-12-03T03:10:18.700Z,15.45
2022-12-03T03:12:51.346Z,16.48
2022-12-03T03:15:21.393Z,18.75
2022-12-03T03:17:52.807Z,18.80
2022-12-03T03:20:23.195Z,12.85
2022-12-03T03:22:53.047Z,17.98
2022-12-03T03:25:24.884Z,16.58
2022-12-03T03:27:58.013Z,14.90
2022-12-03T03:30:40.133Z,16.50
2022-12-03T03:33:10.552Z,13.30
2022-12-03T03:35:41.190Z,18.52
2022-12-03T03:38:11.889Z,15.43
2022-12-03T03:40:42.492Z,15.32
2022-12-03T03:43:16.005Z,17.92
2022-12-03T03:45:46.908Z,15.65
2022-12-03T03:48:17.201Z,15.57
2022-12-03T03:50:47.708Z,15.65
2022-12-03T03:53:18.163Z,16.23
2022-12-03T03:55:48.313Z,15.27
2022-12-03T03:58:21.941Z,18.50
2022-12-03T04:00:52.016Z,18.45
2022-12-03T04:03:21.951Z,16.08
2022-12-03T04:05:52.202Z,17.70
2022-12-03T04:08:22.124Z,20.33
2022-12-03T04:11:04.735Z,14.07
2022-12-03T04:13:37.185Z,18.35
2022-12-03T04:16:07.452Z,18.58
2022-12-03T04:18:46.266Z,17.40
2022-12-03T04:21:29.941Z,15.82
2022-12-03T04:23:59.815Z,16.20
2022-12-03T04:26:42.451Z,15.48
2022-12-03T04:29:15.305Z,20.25
2022-12-03T04:31:57.568Z,19.65
2022-12-03T04:34:39.913Z,20.08
2022-12-03T04:37:10.075Z,18.42
2022-12-03T04:39:40.159Z,19.85
2022-12-03T04:42:10.457Z,16.83
2022-12-03T04:44:42.894Z,19.67
2022-12-03T04:47:13.971Z,16.15
2022-12-03T04:49:45.506Z,20.02
2022-12-03T04:52:17.509Z,18.10
2022-12-03T04:54:47.779Z,17.17
2022-12-03T04:57:17.817Z,15.38
2022-12-03T04:59:50.271Z,18.95
2022-12-03T05:02:20.393Z,16.33
2022-12-03T05:04:50.575Z,19.40
2022-12-03T05:07:20.689Z,19.33
2022-12-03T05:09:50.610Z,17.88
2022-12-03T05:12:20.472Z,19.90
2022-12-03T05:14:53.651Z,18.67
2022-12-03T05:17:23.852Z,18.10
2022-12-03T05:20:06.158Z,17.83
2022-12-03T05:22:36.558Z,17.48
2022-12-03T05:25:07.498Z,14.68
2022-12-03T05:27:37.457Z,14.75
2022-12-03T05:30:11.529Z,19.23
2022-12-03T05:32:41.467Z,17.00
2022-12-03T05:35:12.791Z,15.20
2022-12-03T05:37:42.712Z,17.48
2022-12-03T05:40:13.911Z,17.17
2022-12-03T05:42:57.234Z,18.70
2022-12-03T05:45:31.361Z,17.20
2022-12-03T05:48:02.339Z,15.57
2022-12-03T05:50:33.744Z,16.27
2022-12-03T05:53:18.174Z,15.93
2022-12-03T05:55:48.079Z,14.82
2022-12-03T05:58:17.961Z,16.50
2022-12-03T06:00:50.392Z,16.90
2022-12-03T06:03:20.286Z,16.10
2022-12-03T06:05:50.277Z,16.40
2022-12-03T06:08:20.157Z,17.63
2022-12-03T06:10:50.124Z,16.85
2022-12-03T06:13:20.303Z,19.20
2022-12-03T06:15:53.055Z,14.88
2022-12-03T06:18:23.025Z,15.48
2022-12-03T06:20:52.953Z,19.30
2022-12-03T06:23:22.781Z,16.52
2022-12-03T06:25:52.657Z,14.52
2022-12-03T06:28:22.494Z,19.05
2022-12-03T06:30:55.108Z,19.17
2022-12-03T06:33:25.053Z,18.90
2022-12-03T06:35:55.133Z,15.13
2022-12-03T06:38:25.201Z,17.05
2022-12-03T06:40:55.126Z,17.58
2022-12-03T06:43:25.001Z,16.65
2022-12-03T06:45:57.527Z,15.07
2022-12-03T06:48:27.403Z,16.40
2022-12-03T06:50:57.212Z,16.60
2022-12-03T06:53:28.046Z,18.10
2022-12-03T06:55:57.981Z,17.42
2022-12-03T06:58:27.897Z,16.63
2022-12-03T07:01:00.355Z,17.73
2022-12-03T07:03:30.264Z,16.95
2022-12-03T07:06:00.117Z,13.15
2022-12-03T07:08:30.681Z,20.30
2022-12-03T07:11:00.581Z,16.48
2022-12-03T07:13:30.442Z,17.48
2022-12-03T07:16:03.296Z,16.65
2022-12-03T07:18:33.177Z,17.38
2022-12-03T07:21:02.996Z,15.73
2022-12-03T07:23:32.897Z,20.55
2022-12-03T07:26:02.705Z,17.58
2022-12-03T07:28:32.542Z,20.02
2022-12-03T07:31:05.105Z,19.77
2022-12-03T07:33:35.113Z,20.92
2022-12-03T07:36:04.971Z,18.80
2022-12-03T07:38:34.890Z,19.63
2022-12-03T07:41:04.991Z,18.58
2022-12-03T07:43:35.342Z,17.38
2022-12-03T07:46:08.694Z,17.73
2022-12-03T07:48:38.667Z,19.58
2022-12-03T07:51:14.255Z,16.88
2022-12-03T07:53:45.318Z,18.45
2022-12-03T07:56:15.153Z,17.67
2022-12-03T07:58:45.015Z,17.55
2022-12-03T08:01:17.664Z,15.73
2022-12-03T08:03:47.673Z,17.15
2022-12-03T08:06:17.552Z,17.60
2022-12-03T08:08:47.362Z,17.30
2022-12-03T08:11:17.696Z,16.02
2022-12-03T08:13:47.535Z,16.83
2022-12-03T08:16:23.218Z,17.02
2022-12-03T08:18:54.053Z,18.90
2022-12-03T08:21:24.884Z,16.13
2022-12-03T08:23:54.739Z,17.88
2022-12-03T08:26:26.295Z,20.02
2022-12-03T08:28:56.655Z,21.85
2022-12-03T08:31:33.694Z,20.15
2022-12-03T08:34:19.095Z,20.87
2022-12-03T08:37:00.784Z,29.40
2022-12-03T08:39:49.331Z,33.13
2022-12-03T08:45:43.044Z,33.55
2022-12-03T08:51:25.306Z,32.80
2022-12-03T08:54:02.184Z,21.83
2022-12-03T08:56:36.076Z,20.08
2022-12-03T08:59:28.346Z,20.70
2022-12-03T09:04:48.457Z,32.95
2022-12-03T09:07:18.493Z,18.33
2022-12-03T09:09:48.453Z,20.90
2022-12-03T09:12:18.331Z,19.50
2022-12-03T09:14:48.285Z,18.42
2022-12-03T09:17:19.287Z,19.38
2022-12-03T09:19:52.045Z,20.05
2022-12-03T09:22:22.092Z,19.55
2022-12-03T09:24:52.564Z,19.50
2022-12-03T09:27:22.974Z,28.40
2022-12-03T09:29:53.031Z,26.20
2022-12-03T09:32:23.066Z,19.58
2022-12-03T09:34:56.303Z,19.58
2022-12-03T09:37:26.473Z,19.95
2022-12-03T09:39:56.545Z,16.50
2022-12-03T09:42:26.488Z,19.55
2022-12-03T09:44:57.292Z,17.30
2022-12-03T09:47:27.168Z,24.70
2022-12-03T09:50:00.084Z,21.05
2022-12-03T09:52:31.152Z,23.63
2022-12-03T09:55:01.514Z,16.33
2022-12-03T09:57:31.313Z,19.50
2022-12-03T10:00:01.975Z,18.83
2022-12-03T10:02:34.396Z,19.27
2022-12-03T10:05:07.252Z,21.58
2022-12-03T10:07:37.242Z,22.40
2022-12-03T10:10:08.920Z,19.80
2022-12-03T10:12:38.864Z,19.67
2022-12-03T10:15:12.580Z,22.48
2022-12-03T10:17:42.695Z,24.40
2022-12-03T10:20:17.704Z,20.60
2022-12-03T10:22:48.947Z,19.20
2022-12-03T10:25:21.137Z,16.95
2022-12-03T10:28:00.145Z,18.20
2022-12-03T10:33:19.134Z,21.13
2022-12-03T10:35:51.860Z,18.67
2022-12-03T10:38:24.960Z,19.67
2022-12-03T10:40:55.154Z,18.05
2022-12-03T10:43:26.911Z,18.63
2022-12-03T10:46:14.487Z,22.08
2022-12-03T10:48:44.520Z,19.25
2022-12-03T10:51:21.332Z,21.67
2022-12-03T10:53:52.040Z,22.58
2022-12-03T10:56:26.701Z,23.10
2022-12-03T10:58:56.800Z,25.75
2022-12-03T11:01:28.603Z,23.30
2022-12-03T11:04:03.706Z,23.15
2022-12-03T11:06:41.481Z,21.13
2022-12-03T11:09:18.743Z,19.77
2022-12-03T11:15:17.640Z,21.42
2022-12-03T11:17:50.346Z,18.95
2022-12-03T11:20:50.306Z,21.23
2022-12-03T11:23:58.000Z,17.00
2022-12-03T11:27:12.740Z,18.15
2022-12-03T11:30:02.586Z,17.73
2022-12-03T11:36:13.399Z,24.67
2022-12-03T11:38:57.467Z,20.23
2022-12-03T11:44:35.412Z,23.05
2022-12-03T11:47:16.469Z,21.48
2022-12-03T11:49:50.746Z,25.13
2022-12-03T11:52:26.550Z,20.83
2022-12-03T11:55:02.927Z,23.20
2022-12-03T12:00:23.845Z,24.92
2022-12-03T12:02:55.248Z,21.45
2022-12-03T12:05:28.996Z,23.90
2022-12-03T12:07:59.643Z,22.67
2022-12-03T12:10:47.013Z,26.98
2022-12-03T12:13:56.076Z,23.52
2022-12-03T12:16:52.873Z,24.05
2022-12-03T12:22:33.910Z,33.90
2022-12-03T12:25:17.650Z,30.13
2022-12-03T12:27:52.248Z,24.65
2022-12-03T12:30:35.817Z,22.63
2022-12-03T12:38:42.900Z,23.65
2022-12-03T12:41:13.785Z,22.95
2022-12-03T12:43:46.338Z,22.02
2022-12-03T12:46:46.663Z,21.77
2022-12-03T12:49:12.407Z,21.92
2022-12-03T12:52:02.387Z,22.00
2022-12-03T12:54:32.309Z,24.60
2022-12-03T12:57:02.184Z,22.40
2022-12-03T12:59:34.735Z,21.83
2022-12-03T13:02:10.065Z,20.17
2022-12-03T13:07:24.611Z,23.55
2022-12-03T13:09:56.948Z,20.30
2022-12-03T13:12:27.242Z,22.95
2022-12-03T13:17:44.970Z,22.17
2022-12-03T13:26:09.266Z,22.60
2022-12-03T13:28:48.799Z,21.52
2022-12-03T13:31:26.137Z,24.35
2022-12-03T13:33:59.557Z,19.77
2022-12-03T13:36:39.629Z,22.15
2022-12-03T13:39:16.776Z,19.33
2022-12-03T13:41:59.152Z,22.35
2022-12-03T13:44:29.946Z,23.33
2022-12-03T13:49:51.274Z,22.52
2022-12-03T13:52:24.422Z,22.58
2022-12-03T13:54:57.016Z,23.15
2022-12-03T13:57:27.221Z,18.98
2022-12-03T13:59:57.496Z,20.92
2022-12-03T14:05:14.178Z,22.63
2022-12-03T14:10:28.165Z,20.23
2022-12-03T14:12:58.845Z,19.45
2022-12-03T14:15:29.151Z,22.50
2022-12-03T14:18:06.739Z,22.23
2022-12-03T14:20:39.751Z,22.73
2022-12-03T14:23:09.679Z,24.77
2022-12-03T14:25:45.095Z,39.85
2022-12-03T14:28:15.052Z,29.98
2022-12-03T14:30:44.951Z,23.83
2022-12-03T14:33:23.050Z,31.05
2022-12-03T14:35:54.418Z,26.92
2022-12-03T14:38:25.850Z,25.63
2022-12-03T14:40:55.855Z,33.03
2022-12-03T14:43:30.679Z,30.30
2022-12-03T14:46:13.587Z,25.40
2022-12-03T14:48:47.136Z,39.05
2022-12-03T14:51:21.993Z,47.83
2022-12-03T14:53:53.171Z,52.15
2022-12-03T14:56:23.459Z,48.35
2022-12-03T14:58:54.284Z,33.30
2022-12-03T15:01:24.375Z,33.10
2022-12-03T15:03:56.886Z,27.75
2022-12-03T15:06:26.824Z,31.17
2022-12-03T15:08:56.744Z,38.78
2022-12-03T15:11:40.163Z,37.50
2022-12-03T15:14:17.879Z,32.58
2022-12-03T15:22:18.291Z,23.77
2022-12-03T15:24:48.218Z,26.10
2022-12-03T15:27:19.125Z,27.58
2022-12-03T15:29:49.420Z,25.50
2022-12-03T15:35:19.632Z,24.88
2022-12-03T15:43:17.917Z,22.50
2022-12-03T15:45:48.242Z,20.35
2022-12-03T15:48:18.358Z,20.80
2022-12-03T15:50:53.365Z,21.42
2022-12-03T15:53:23.414Z,22.38
2022-12-03T16:01:30.379Z,22.35
2022-12-03T16:04:01.743Z,60.95
2022-12-03T16:06:34.200Z,40.25
2022-12-03T16:09:04.142Z,22.35
2022-12-03T16:11:34.086Z,20.83
2022-12-03T16:14:05.273Z,22.15
2022-12-03T16:16:35.301Z,19.23
2022-12-03T16:21:51.570Z,20.38
2022-12-03T16:24:21.569Z,21.75
2022-12-03T16:26:51.475Z,20.52
2022-12-03T16:29:30.581Z,21.50
2022-12-03T16:32:03.457Z,21.35
2022-12-03T16:34:39.904Z,20.02
2022-12-03T16:37:12.618Z,19.13
2022-12-03T16:42:34.717Z,22.77
2022-12-03T16:45:16.803Z,20.55
2022-12-03T16:47:51.897Z,22.35
2022-12-03T16:50:29.075Z,21.30
2022-12-03T16:53:05.999Z,24.30
2022-12-03T16:55:35.960Z,19.95
2022-12-03T16:58:06.075Z,19.02
2022-12-03T17:00:36.053Z,19.27
2022-12-03T17:03:06.047Z,21.25
2022-12-03T17:05:35.987Z,20.77
2022-12-03T17:08:08.680Z,19.00
2022-12-03T17:10:38.914Z,20.70
2022-12-03T17:13:10.341Z,22.15
2022-12-03T17:15:40.759Z,17.25
2022-12-03T17:18:11.132Z,20.52
2022-12-03T17:20:41.276Z,19.10
2022-12-03T17:23:13.831Z,20.02
2022-12-03T17:25:43.792Z,18.40
2022-12-03T17:28:13.780Z,19.30
2022-12-03T17:30:44.420Z,19.33
2022-12-03T17:33:14.385Z,21.70
2022-12-03T17:35:45.650Z,21.13
2022-12-03T17:38:18.252Z,18.10
2022-12-03T17:40:48.159Z,22.85
2022-12-03T17:43:18.130Z,20.63
2022-12-03T17:45:47.985Z,19.60
2022-12-03T17:48:18.264Z,16.95
2022-12-03T17:50:48.732Z,20.63
2022-12-03T17:53:21.281Z,19.20
2022-12-03T17:55:51.167Z,21.23
2022-12-03T17:58:21.028Z,20.90
2022-12-03T18:00:50.836Z,18.42
2022-12-03T18:03:20.797Z,19.30
2022-12-03T18:05:50.724Z,19.98
2022-12-03T18:08:23.380Z,32.00
2022-12-03T18:10:53.390Z,20.60
2022-12-03T18:13:23.316Z,23.38
2022-12-03T18:15:53.216Z,18.75
2022-12-03T18:18:23.185Z,19.35
2022-12-03T18:20:53.102Z,24.67
2022-12-03T18:23:25.672Z,22.15
2022-12-03T18:25:56.779Z,23.05
2022-12-03T18:28:26.964Z,25.52
2022-12-03T18:30:57.066Z,22.92
2022-12-03T18:33:27.257Z,22.83
2022-12-03T18:35:58.821Z,23.48
2022-12-03T18:38:33.612Z,23.10
2022-12-03T18:41:03.585Z,23.73
2022-12-03T18:43:33.527Z,22.20
2022-12-03T18:46:04.531Z,21.10
2022-12-03T18:48:34.470Z,20.63
2022-12-03T18:51:04.518Z,19.15
2022-12-03T18:53:36.996Z,22.70
2022-12-03T18:56:07.150Z,24.02
2022-12-03T18:58:37.128Z,19.85
2022-12-03T19:01:07.409Z,21.95
2022-12-03T19:03:37.433Z,26.17
2022-12-03T19:06:07.973Z,22.35
2022-12-03T19:08:40.418Z,24.70
2022-12-03T19:11:10.520Z,23.67
2022-12-03T19:13:40.891Z,24.02
2022-12-03T19:16:12.618Z,27.77
2022-12-03T19:18:42.584Z,25.20
2022-12-03T19:21:13.937Z,23.08
2022-12-03T19:24:16.042Z,23.75
2022-12-03T19:26:36.547Z,22.75
2022-12-03T19:29:06.587Z,24.30
2022-12-03T19:31:36.532Z,27.48
2022-12-03T19:34:06.537Z,24.90
2022-12-03T19:36:36.474Z,24.27
2022-12-03T19:39:09.092Z,25.45
2022-12-03T19:41:39.398Z,26.33
2022-12-03T19:44:11.031Z,24.00
2022-12-03T19:46:41.106Z,25.85
2022-12-03T19:49:11.346Z,30.08
2022-12-03T19:51:41.371Z,25.00
2022-12-03T19:54:14.780Z,23.55
2022-12-03T19:56:44.681Z,26.30
2022-12-03T19:59:15.585Z,26.15
2022-12-03T20:01:45.608Z,22.23
2022-12-03T20:04:15.906Z,25.50
2022-12-03T20:06:45.823Z,24.98
2022-12-03T20:09:20.773Z,24.55
2022-12-03T20:11:53.988Z,24.60
2022-12-03T20:14:24.184Z,25.73
2022-12-03T20:16:54.116Z,21.75
2022-12-03T20:19:24.014Z,24.58
2022-12-03T20:21:59.057Z,24.40
2022-12-03T20:24:34.780Z,23.58
2022-12-03T20:27:04.719Z,24.85
2022-12-03T20:29:34.748Z,23.15
2022-12-03T20:32:07.051Z,26.67
2022-12-03T20:34:37.182Z,28.77
2022-12-03T20:37:07.130Z,26.80
2022-12-03T20:39:39.990Z,27.13
2022-12-03T20:42:10.307Z,25.33
2022-12-03T20:44:41.007Z,26.08
2022-12-03T20:47:11.011Z,27.05
2022-12-03T20:49:41.702Z,26.77
2022-12-03T20:52:11.674Z,22.95
2022-12-03T20:54:44.282Z,26.88
2022-12-03T20:57:14.179Z,25.50
2022-12-03T20:59:44.059Z,25.33
2022-12-03T21:02:14.109Z,26.90
2022-12-03T21:04:44.170Z,23.08
2022-12-03T21:07:14.098Z,21.15
2022-12-03T21:09:46.582Z,23.08
2022-12-03T21:12:16.471Z,27.23
2022-12-03T21:14:47.249Z,25.30
2022-12-03T21:17:17.209Z,28.50
2022-12-03T21:19:47.504Z,27.35
2022-12-03T21:22:17.418Z,22.92
2022-12-03T21:24:49.922Z,29.73
2022-12-03T21:27:21.766Z,23.80
2022-12-03T21:29:52.997Z,23.63
2022-12-03T21:32:22.984Z,23.33
2022-12-03T21:34:52.868Z,26.42
2022-12-03T21:37:23.079Z,25.95
2022-12-03T21:39:55.856Z,25.77
2022-12-03T21:42:35.390Z,25.58
2022-12-03T21:45:08.262Z,25.27
2022-12-03T21:47:38.241Z,24.48
2022-12-03T21:50:11.290Z,30.38
2022-12-03T21:52:41.202Z,25.90
2022-12-03T21:55:13.914Z,27.30
2022-12-03T21:57:43.891Z,32.33
2022-12-03T22:00:15.175Z,29.13
2022-12-03T22:02:45.202Z,28.88
2022-12-03T22:05:15.264Z,27.75
2022-12-03T22:07:45.691Z,35.97
2022-12-03T22:10:18.263Z,37.20
2022-12-03T22:12:48.114Z,38.33
2022-12-03T22:15:19.479Z,33.08
2022-12-03T22:17:50.255Z,35.20
2022-12-03T22:20:20.252Z,36.22
2022-12-03T22:22:50.197Z,34.42
2022-12-03T22:25:22.740Z,28.02
2022-12-03T22:27:52.651Z,30.60
2022-12-03T22:30:22.774Z,32.20
2022-12-03T22:32:52.656Z,36.22
2022-12-03T22:35:22.568Z,36.53
2022-12-03T22:37:52.433Z,38.22
2022-12-03T22:40:25.063Z,33.03
2022-12-03T22:42:54.946Z,41.85
2022-12-03T22:45:24.808Z,32.22
2022-12-03T22:47:54.790Z,28.30
2022-12-03T22:50:24.675Z,27.17
2022-12-03T22:52:54.545Z,29.50
2022-12-03T22:55:27.024Z,29.67
2022-12-03T22:57:56.962Z,27.90
2022-12-03T23:00:32.578Z,30.98
2022-12-03T23:03:02.652Z,29.20
2022-12-03T23:05:38.535Z,30.10
2022-12-03T23:08:08.920Z,38.20
2022-12-03T23:10:45.823Z,49.92
2022-12-03T23:13:16.035Z,53.33
2022-12-03T23:15:47.809Z,51.35
2022-12-03T23:18:17.942Z,47.85
2022-12-03T23:20:48.754Z,46.10
2022-12-03T23:23:19.357Z,55.08
2022-12-03T23:26:01.699Z,47.55
2022-12-03T23:28:32.881Z,45.80
2022-12-03T23:31:03.039Z,36.53
2022-12-03T23:33:37.887Z,34.83
2022-12-03T23:36:08.799Z,27.80
2022-12-03T23:38:38.890Z,32.15
2022-12-03T23:41:13.491Z,38.90
2022-12-03T23:43:43.990Z,36.30
2022-12-03T23:46:15.247Z,35.08
2022-12-03T23:48:45.665Z,37.17
2022-12-03T23:51:17.029Z,33.95
2022-12-03T23:53:47.122Z,36.63
2022-12-03T23:56:22.130Z,34.10
2022-12-03T23:58:52.043Z,33.42
